sensor_id;sensor_type;location;lat;lon;timestamp;P1;durP1;ratioP1;P2;durP2;ratioP2
1180;SDS011;579;52.046;8.532;2022-11-20T00:00:20;0.10;;;0.10;;
1180;SDS011;579;52.046;8.532;2022-11-20T00:02:47;0.10;;;0.10;;
1180;SDS011;579;52.046;8.532;2022-11-20T00:05:13;0.10;;;0.10;;
1180;SDS011;579;52.046;8.532;2022-11-20T00:07:39;0.10;;;0.10;;
1180;SDS011;579;52.046;8.532;2022-11-20T00:10:06;0.10;;;0.10;;
1180;SDS011;579;52.046;8.532;2022-11-20T00:17:38;0.10;;;0.10;;
1180;SDS011;579;52.046;8.532;2022-11-20T00:20:05;0.10;;;0.10;;
1180;SDS011;579;52.046;8.532;2022-11-20T00:22:32;0.10;;;0.10;;
1180;SDS011;579;52.046;8.532;2022-11-20T00:24:58;0.10;;;0.10;;
1180;SDS011;579;52.046;8.532;2022-11-20T00:27:24;0.10;;;0.10;;
1180;SDS011;579;52.046;8.532;2022-11-20T00:29:51;0.10;;;0.10;;
1180;SDS011;579;52.046;8.532;2022-11-20T00:32:17;0.10;;;0.10;;
1180;SDS011;579;52.046;8.532;2022-11-20T00:38:41;0.10;;;0.10;;
1180;SDS011;579;52.046;8.532;2022-11-20T00:41:08;0.10;;;0.10;;
1180;SDS011;579;52.046;8.532;2022-11-20T00:43:37;0.10;;;0.10;;
1180;SDS011;579;52.046;8.532;2022-11-20T00:46:04;0.10;;;0.10;;
1180;SDS011;579;52.046;8.532;2022-11-20T00:48:33;0.20;;;0.20;;
1180;SDS011;579;52.046;8.532;2022-11-20T00:50:59;0.10;;;0.10;;
1180;SDS011;579;52.046;8.532;2022-11-20T00:53:26;0.10;;;0.10;;
1180;SDS011;579;52.046;8.532;2022-11-20T01:00:10;0.10;;;0.10;;
1180;SDS011;579;52.046;8.532;2022-11-20T01:02:36;0.17;;;0.17;;
1180;SDS011;579;52.046;8.532;2022-11-20T01:05:03;0.10;;;0.10;;
1180;SDS011;579;52.046;8.532;2022-11-20T01:07:30;0.15;;;0.15;;
1180;SDS011;579;52.046;8.532;2022-11-20T01:09:57;0.10;;;0.10;;
1180;SDS011;579;52.046;8.532;2022-11-20T01:12:23;0.10;;;0.10;;
1180;SDS011;579;52.046;8.532;2022-11-20T01:14:49;0.10;;;0.10;;
1180;SDS011;579;52.046;8.532;2022-11-20T01:22:20;0.10;;;0.10;;
1180;SDS011;579;52.046;8.532;2022-11-20T01:24:46;0.20;;;0.20;;
1180;SDS011;579;52.046;8.532;2022-11-20T01:27:12;0.10;;;0.10;;
1180;SDS011;579;52.046;8.532;2022-11-20T01:29:39;0.10;;;0.10;;
1180;SDS011;579;52.046;8.532;2022-11-20T01:32:05;0.20;;;0.20;;
1180;SDS011;579;52.046;8.532;2022-11-20T01:34:31;0.20;;;0.20;;
1180;SDS011;579;52.046;8.532;2022-11-20T01:36:57;0.10;;;0.10;;
1180;SDS011;579;52.046;8.532;2022-11-20T01:44:12;0.10;;;0.10;;
1180;SDS011;579;52.046;8.532;2022-11-20T01:46:44;0.10;;;0.10;;
1180;SDS011;579;52.046;8.532;2022-11-20T01:49:21;0.10;;;0.10;;
1180;SDS011;579;52.046;8.532;2022-11-20T01:51:54;0.10;;;0.10;;
1180;SDS011;579;52.046;8.532;2022-11-20T01:54:25;0.10;;;0.10;;
1180;SDS011;579;52.046;8.532;2022-11-20T01:56:56;0.10;;;0.10;;
1180;SDS011;579;52.046;8.532;2022-11-20T01:59:26;0.17;;;0.17;;
1180;SDS011;579;52.046;8.532;2022-11-20T02:06:40;0.10;;;0.10;;
1180;SDS011;579;52.046;8.532;2022-11-20T02:09:11;0.10;;;0.10;;
1180;SDS011;579;52.046;8.532;2022-11-20T02:11:39;0.10;;;0.10;;
1180;SDS011;579;52.046;8.532;2022-11-20T02:14:05;0.13;;;0.13;;
1180;SDS011;579;52.046;8.532;2022-11-20T02:16:36;0.10;;;0.10;;
1180;SDS011;579;52.046;8.532;2022-11-20T02:19:07;0.20;;;0.20;;
1180;SDS011;579;52.046;8.532;2022-11-20T02:21:45;0.10;;;0.10;;
1180;SDS011;579;52.046;8.532;2022-11-20T02:28:12;0.10;;;0.10;;
1180;SDS011;579;52.046;8.532;2022-11-20T02:30:39;0.10;;;0.10;;
1180;SDS011;579;52.046;8.532;2022-11-20T02:33:05;0.10;;;0.10;;
1180;SDS011;579;52.046;8.532;2022-11-20T02:35:41;0.10;;;0.10;;
1180;SDS011;579;52.046;8.532;2022-11-20T02:38:10;0.10;;;0.10;;
1180;SDS011;579;52.046;8.532;2022-11-20T02:40:36;0.10;;;0.10;;
1180;SDS011;579;52.046;8.532;2022-11-20T02:43:02;0.10;;;0.10;;
1180;SDS011;579;52.046;8.532;2022-11-20T02:50:11;0.17;;;0.17;;
1180;SDS011;579;52.046;8.532;2022-11-20T02:52:38;0.10;;;0.10;;
1180;SDS011;579;52.046;8.532;2022-11-20T02:55:04;0.10;;;0.10;;
1180;SDS011;579;52.046;8.532;2022-11-20T02:57:32;0.10;;;0.10;;
1180;SDS011;579;52.046;8.532;2022-11-20T02:59:58;0.10;;;0.10;;
1180;SDS011;579;52.046;8.532;2022-11-20T03:02:24;0.10;;;0.10;;
1180;SDS011;579;52.046;8.532;2022-11-20T03:04:51;0.10;;;0.10;;
1180;SDS011;579;52.046;8.532;2022-11-20T03:12:10;0.10;;;0.10;;
1180;SDS011;579;52.046;8.532;2022-11-20T03:14:36;0.10;;;0.10;;
1180;SDS011;579;52.046;8.532;2022-11-20T03:17:02;0.10;;;0.10;;
1180;SDS011;579;52.046;8.532;2022-11-20T03:19:29;0.10;;;0.10;;
1180;SDS011;579;52.046;8.532;2022-11-20T03:21:55;0.10;;;0.10;;
1180;SDS011;579;52.046;8.532;2022-11-20T03:24:21;0.10;;;0.10;;
1180;SDS011;579;52.046;8.532;2022-11-20T03:26:48;0.10;;;0.10;;
1180;SDS011;579;52.046;8.532;2022-11-20T03:34:17;0.10;;;0.10;;
1180;SDS011;579;52.046;8.532;2022-11-20T03:36:43;0.15;;;0.15;;
1180;SDS011;579;52.046;8.532;2022-11-20T03:39:10;0.10;;;0.10;;
1180;SDS011;579;52.046;8.532;2022-11-20T03:41:37;0.10;;;0.10;;
1180;SDS011;579;52.046;8.532;2022-11-20T03:44:05;0.10;;;0.10;;
1180;SDS011;579;52.046;8.532;2022-11-20T03:46:34;0.10;;;0.10;;
1180;SDS011;579;52.046;8.532;2022-11-20T03:49:01;0.10;;;0.10;;
1180;SDS011;579;52.046;8.532;2022-11-20T03:56:33;0.10;;;0.10;;
1180;SDS011;579;52.046;8.532;2022-11-20T03:59:02;0.10;;;0.10;;
1180;SDS011;579;52.046;8.532;2022-11-20T04:01:30;0.10;;;0.10;;
1180;SDS011;579;52.046;8.532;2022-11-20T04:03:58;0.10;;;0.10;;
1180;SDS011;579;52.046;8.532;2022-11-20T04:06:25;0.10;;;0.10;;
1180;SDS011;579;52.046;8.532;2022-11-20T04:08:54;0.10;;;0.10;;
1180;SDS011;579;52.046;8.532;2022-11-20T04:11:21;0.10;;;0.10;;
1180;SDS011;579;52.046;8.532;2022-11-20T04:18:53;0.10;;;0.10;;
1180;SDS011;579;52.046;8.532;2022-11-20T04:21:21;0.10;;;0.10;;
1180;SDS011;579;52.046;8.532;2022-11-20T04:23:49;0.10;;;0.10;;
1180;SDS011;579;52.046;8.532;2022-11-20T04:26:15;0.10;;;0.10;;
1180;SDS011;579;52.046;8.532;2022-11-20T04:28:42;0.10;;;0.10;;
1180;SDS011;579;52.046;8.532;2022-11-20T04:31:09;0.10;;;0.10;;
1180;SDS011;579;52.046;8.532;2022-11-20T04:33:37;0.10;;;0.10;;
1180;SDS011;579;52.046;8.532;2022-11-20T04:41:11;0.10;;;0.10;;
1180;SDS011;579;52.046;8.532;2022-11-20T04:43:41;0.10;;;0.10;;
1180;SDS011;579;52.046;8.532;2022-11-20T04:46:07;0.10;;;0.10;;
1180;SDS011;579;52.046;8.532;2022-11-20T04:48:34;0.10;;;0.10;;
1180;SDS011;579;52.046;8.532;2022-11-20T04:51:02;0.20;;;0.20;;
1180;SDS011;579;52.046;8.532;2022-11-20T04:53:29;0.10;;;0.10;;
1180;SDS011;579;52.046;8.532;2022-11-20T04:55:58;0.20;;;0.20;;
1180;SDS011;579;52.046;8.532;2022-11-20T05:03:12;0.10;;;0.10;;
1180;SDS011;579;52.046;8.532;2022-11-20T05:05:38;0.20;;;0.20;;
1180;SDS011;579;52.046;8.532;2022-11-20T05:08:05;0.10;;;0.10;;
1180;SDS011;579;52.046;8.532;2022-11-20T05:10:31;0.15;;;0.15;;
1180;SDS011;579;52.046;8.532;2022-11-20T05:12:57;0.10;;;0.10;;
1180;SDS011;579;52.046;8.532;2022-11-20T05:15:23;0.10;;;0.10;;
1180;SDS011;579;52.046;8.532;2022-11-20T05:17:50;0.20;;;0.20;;
1180;SDS011;579;52.046;8.532;2022-11-20T05:22:57;0.10;;;0.10;;
1180;SDS011;579;52.046;8.532;2022-11-20T05:25:23;0.10;;;0.10;;
1180;SDS011;579;52.046;8.532;2022-11-20T05:27:50;0.10;;;0.10;;
1180;SDS011;579;52.046;8.532;2022-11-20T05:30:16;0.10;;;0.10;;
1180;SDS011;579;52.046;8.532;2022-11-20T05:32:42;0.10;;;0.10;;
1180;SDS011;579;52.046;8.532;2022-11-20T05:35:09;0.10;;;0.10;;
1180;SDS011;579;52.046;8.532;2022-11-20T05:37:35;0.20;;;0.20;;
1180;SDS011;579;52.046;8.532;2022-11-20T05:45:08;0.10;;;0.10;;
1180;SDS011;579;52.046;8.532;2022-11-20T05:47:34;0.10;;;0.10;;
1180;SDS011;579;52.046;8.532;2022-11-20T05:50:01;0.20;;;0.20;;
1180;SDS011;579;52.046;8.532;2022-11-20T05:52:28;0.13;;;0.13;;
1180;SDS011;579;52.046;8.532;2022-11-20T05:54:54;0.20;;;0.20;;
1180;SDS011;579;52.046;8.532;2022-11-20T05:57:20;0.10;;;0.10;;
1180;SDS011;579;52.046;8.532;2022-11-20T05:59:47;0.10;;;0.10;;
1180;SDS011;579;52.046;8.532;2022-11-20T06:07:13;0.10;;;0.10;;
1180;SDS011;579;52.046;8.532;2022-11-20T06:09:40;0.10;;;0.10;;
1180;SDS011;579;52.046;8.532;2022-11-20T06:12:06;0.10;;;0.10;;
1180;SDS011;579;52.046;8.532;2022-11-20T06:14:33;0.10;;;0.10;;
1180;SDS011;579;52.046;8.532;2022-11-20T06:16:59;0.10;;;0.10;;
1180;SDS011;579;52.046;8.532;2022-11-20T06:19:26;0.10;;;0.10;;
1180;SDS011;579;52.046;8.532;2022-11-20T06:21:52;0.10;;;0.10;;
1180;SDS011;579;52.046;8.532;2022-11-20T06:29:24;0.17;;;0.17;;
1180;SDS011;579;52.046;8.532;2022-11-20T06:31:50;0.20;;;0.20;;
1180;SDS011;579;52.046;8.532;2022-11-20T06:34:17;0.10;;;0.10;;
1180;SDS011;579;52.046;8.532;2022-11-20T06:36:43;0.10;;;0.10;;
1180;SDS011;579;52.046;8.532;2022-11-20T06:39:09;0.17;;;0.17;;
1180;SDS011;579;52.046;8.532;2022-11-20T06:41:35;0.10;;;0.10;;
1180;SDS011;579;52.046;8.532;2022-11-20T06:44:03;0.20;;;0.20;;
1180;SDS011;579;52.046;8.532;2022-11-20T06:48:08;0.10;;;0.10;;
1180;SDS011;579;52.046;8.532;2022-11-20T06:50:35;0.10;;;0.10;;
1180;SDS011;579;52.046;8.532;2022-11-20T06:53:03;0.10;;;0.10;;
1180;SDS011;579;52.046;8.532;2022-11-20T06:55:30;0.10;;;0.10;;
1180;SDS011;579;52.046;8.532;2022-11-20T06:57:57;0.10;;;0.10;;
1180;SDS011;579;52.046;8.532;2022-11-20T07:00:23;0.10;;;0.10;;
1180;SDS011;579;52.046;8.532;2022-11-20T07:02:50;0.10;;;0.10;;
1180;SDS011;579;52.046;8.532;2022-11-20T07:10:21;0.10;;;0.10;;
1180;SDS011;579;52.046;8.532;2022-11-20T07:12:49;0.10;;;0.10;;
1180;SDS011;579;52.046;8.532;2022-11-20T07:15:16;0.10;;;0.10;;
1180;SDS011;579;52.046;8.532;2022-11-20T07:17:43;0.10;;;0.10;;
1180;SDS011;579;52.046;8.532;2022-11-20T07:20:09;0.10;;;0.10;;
1180;SDS011;579;52.046;8.532;2022-11-20T07:22:37;0.10;;;0.10;;
1180;SDS011;579;52.046;8.532;2022-11-20T07:25:04;0.10;;;0.10;;
1180;SDS011;579;52.046;8.532;2022-11-20T07:30:08;0.10;;;0.10;;
1180;SDS011;579;52.046;8.532;2022-11-20T07:32:39;0.15;;;0.15;;
1180;SDS011;579;52.046;8.532;2022-11-20T07:35:06;0.10;;;0.10;;
1180;SDS011;579;52.046;8.532;2022-11-20T07:37:33;0.10;;;0.10;;
1180;SDS011;579;52.046;8.532;2022-11-20T07:40:01;0.10;;;0.10;;
1180;SDS011;579;52.046;8.532;2022-11-20T07:42:30;0.10;;;0.10;;
1180;SDS011;579;52.046;8.532;2022-11-20T07:45:00;0.20;;;0.20;;
1180;SDS011;579;52.046;8.532;2022-11-20T07:47:51;0.10;;;0.10;;
1180;SDS011;579;52.046;8.532;2022-11-20T07:50:21;0.10;;;0.10;;
1180;SDS011;579;52.046;8.532;2022-11-20T07:52:48;0.10;;;0.10;;
1180;SDS011;579;52.046;8.532;2022-11-20T07:55:18;0.10;;;0.10;;
1180;SDS011;579;52.046;8.532;2022-11-20T07:57:45;0.15;;;0.15;;
1180;SDS011;579;52.046;8.532;2022-11-20T08:00:20;0.10;;;0.10;;
1180;SDS011;579;52.046;8.532;2022-11-20T08:05:43;0.10;;;0.10;;
1180;SDS011;579;52.046;8.532;2022-11-20T08:08:11;0.20;;;0.20;;
1180;SDS011;579;52.046;8.532;2022-11-20T08:10:39;0.10;;;0.10;;
1180;SDS011;579;52.046;8.532;2022-11-20T08:13:05;0.10;;;0.10;;
1180;SDS011;579;52.046;8.532;2022-11-20T08:15:50;0.10;;;0.10;;
1180;SDS011;579;52.046;8.532;2022-11-20T08:18:17;0.10;;;0.10;;
1180;SDS011;579;52.046;8.532;2022-11-20T08:23:23;0.10;;;0.10;;
1180;SDS011;579;52.046;8.532;2022-11-20T08:25:50;0.10;;;0.10;;
1180;SDS011;579;52.046;8.532;2022-11-20T08:28:17;0.10;;;0.10;;
1180;SDS011;579;52.046;8.532;2022-11-20T08:30:48;0.10;;;0.10;;
1180;SDS011;579;52.046;8.532;2022-11-20T08:33:17;0.10;;;0.10;;
1180;SDS011;579;52.046;8.532;2022-11-20T08:35:47;0.10;;;0.10;;
1180;SDS011;579;52.046;8.532;2022-11-20T08:41:21;0.20;;;0.20;;
1180;SDS011;579;52.046;8.532;2022-11-20T08:43:52;0.10;;;0.10;;
1180;SDS011;579;52.046;8.532;2022-11-20T08:46:24;0.10;;;0.10;;
1180;SDS011;579;52.046;8.532;2022-11-20T08:48:58;0.10;;;0.10;;
1180;SDS011;579;52.046;8.532;2022-11-20T08:51:25;0.00;;;0.00;;
1180;SDS011;579;52.046;8.532;2022-11-20T08:53:53;0.10;;;0.10;;
1180;SDS011;579;52.046;8.532;2022-11-20T08:56:19;0.10;;;0.10;;
1180;SDS011;579;52.046;8.532;2022-11-20T09:01:25;0.00;;;0.00;;
1180;SDS011;579;52.046;8.532;2022-11-20T09:03:52;0.00;;;0.00;;
1180;SDS011;579;52.046;8.532;2022-11-20T09:06:25;0.10;;;0.10;;
1180;SDS011;579;52.046;8.532;2022-11-20T09:08:52;0.00;;;0.00;;
1180;SDS011;579;52.046;8.532;2022-11-20T09:11:21;0.10;;;0.10;;
1180;SDS011;579;52.046;8.532;2022-11-20T09:25:48;0.00;;;0.00;;
1180;SDS011;579;52.046;8.532;2022-11-20T09:28:15;0.00;;;0.00;;
1180;SDS011;579;52.046;8.532;2022-11-20T09:30:43;0.00;;;0.00;;
1180;SDS011;579;52.046;8.532;2022-11-20T09:33:11;0.00;;;0.00;;
1180;SDS011;579;52.046;8.532;2022-11-20T09:35:38;0.10;;;0.10;;
1180;SDS011;579;52.046;8.532;2022-11-20T09:38:08;0.00;;;0.00;;
1180;SDS011;579;52.046;8.532;2022-11-20T09:43:19;0.00;;;0.00;;
1180;SDS011;579;52.046;8.532;2022-11-20T09:46:02;0.00;;;0.00;;
1180;SDS011;579;52.046;8.532;2022-11-20T09:48:42;0.00;;;0.00;;
1180;SDS011;579;52.046;8.532;2022-11-20T09:51:34;0.00;;;0.00;;
1180;SDS011;579;52.046;8.532;2022-11-20T09:54:13;0.00;;;0.00;;
1180;SDS011;579;52.046;8.532;2022-11-20T09:56:44;0.10;;;0.10;;
1180;SDS011;579;52.046;8.532;2022-11-20T10:02:16;0.00;;;0.00;;
1180;SDS011;579;52.046;8.532;2022-11-20T10:04:56;0.00;;;0.00;;
1180;SDS011;579;52.046;8.532;2022-11-20T10:07:27;0.10;;;0.10;;
1180;SDS011;579;52.046;8.532;2022-11-20T10:10:04;0.00;;;0.00;;
1180;SDS011;579;52.046;8.532;2022-11-20T10:12:42;0.00;;;0.00;;
1180;SDS011;579;52.046;8.532;2022-11-20T10:15:25;0.00;;;0.00;;
1180;SDS011;579;52.046;8.532;2022-11-20T10:22:44;0.10;;;0.10;;
1180;SDS011;579;52.046;8.532;2022-11-20T10:25:26;0.10;;;0.10;;
1180;SDS011;579;52.046;8.532;2022-11-20T10:28:10;0.10;;;0.10;;
1180;SDS011;579;52.046;8.532;2022-11-20T10:30:50;0.00;;;0.00;;
1180;SDS011;579;52.046;8.532;2022-11-20T10:33:23;0.00;;;0.00;;
1180;SDS011;579;52.046;8.532;2022-11-20T10:35:52;0.10;;;0.10;;
1180;SDS011;579;52.046;8.532;2022-11-20T10:44:46;0.00;;;0.00;;
1180;SDS011;579;52.046;8.532;2022-11-20T10:47:30;0.10;;;0.10;;
1180;SDS011;579;52.046;8.532;2022-11-20T10:50:02;0.00;;;0.00;;
1180;SDS011;579;52.046;8.532;2022-11-20T10:52:32;0.05;;;0.05;;
1180;SDS011;579;52.046;8.532;2022-11-20T10:55:12;0.00;;;0.00;;
1180;SDS011;579;52.046;8.532;2022-11-20T10:57:54;0.00;;;0.00;;
1180;SDS011;579;52.046;8.532;2022-11-20T11:05:37;0.00;;;0.00;;
1180;SDS011;579;52.046;8.532;2022-11-20T11:08:10;0.00;;;0.00;;
1180;SDS011;579;52.046;8.532;2022-11-20T11:10:42;0.00;;;0.00;;
1180;SDS011;579;52.046;8.532;2022-11-20T11:13:20;0.00;;;0.00;;
1180;SDS011;579;52.046;8.532;2022-11-20T11:15:48;0.00;;;0.00;;
1180;SDS011;579;52.046;8.532;2022-11-20T11:18:22;0.00;;;0.00;;
1180;SDS011;579;52.046;8.532;2022-11-20T11:20:51;0.00;;;0.00;;
1180;SDS011;579;52.046;8.532;2022-11-20T11:26:06;0.00;;;0.00;;
1180;SDS011;579;52.046;8.532;2022-11-20T11:28:52;0.00;;;0.00;;
1180;SDS011;579;52.046;8.532;2022-11-20T11:31:22;0.00;;;0.00;;
1180;SDS011;579;52.046;8.532;2022-11-20T11:33:50;0.10;;;0.10;;
1180;SDS011;579;52.046;8.532;2022-11-20T11:36:17;0.00;;;0.00;;
1180;SDS011;579;52.046;8.532;2022-11-20T11:38:50;0.00;;;0.00;;
1180;SDS011;579;52.046;8.532;2022-11-20T11:44:12;0.00;;;0.00;;
1180;SDS011;579;52.046;8.532;2022-11-20T11:47:09;0.00;;;0.00;;
1180;SDS011;579;52.046;8.532;2022-11-20T11:50:00;0.00;;;0.00;;
1180;SDS011;579;52.046;8.532;2022-11-20T11:52:28;0.00;;;0.00;;
1180;SDS011;579;52.046;8.532;2022-11-20T11:54:57;0.00;;;0.00;;
1180;SDS011;579;52.046;8.532;2022-11-20T11:57:29;0.00;;;0.00;;
1180;SDS011;579;52.046;8.532;2022-11-20T12:03:58;0.10;;;0.10;;
1180;SDS011;579;52.046;8.532;2022-11-20T12:06:30;0.10;;;0.10;;
1180;SDS011;579;52.046;8.532;2022-11-20T12:08:59;0.00;;;0.00;;
1180;SDS011;579;52.046;8.532;2022-11-20T12:11:34;0.05;;;0.05;;
1180;SDS011;579;52.046;8.532;2022-11-20T12:14:13;0.00;;;0.00;;
1180;SDS011;579;52.046;8.532;2022-11-20T12:16:44;0.00;;;0.00;;
1180;SDS011;579;52.046;8.532;2022-11-20T12:19:14;0.00;;;0.00;;
1180;SDS011;579;52.046;8.532;2022-11-20T12:26:45;0.00;;;0.00;;
1180;SDS011;579;52.046;8.532;2022-11-20T12:29:26;0.10;;;0.10;;
1180;SDS011;579;52.046;8.532;2022-11-20T12:32:11;0.10;;;0.10;;
1180;SDS011;579;52.046;8.532;2022-11-20T12:35:29;0.10;;;0.10;;
1180;SDS011;579;52.046;8.532;2022-11-20T12:38:23;0.00;;;0.00;;
1180;SDS011;579;52.046;8.532;2022-11-20T12:41:10;0.00;;;0.00;;
1180;SDS011;579;52.046;8.532;2022-11-20T12:46:41;0.10;;;0.10;;
1180;SDS011;579;52.046;8.532;2022-11-20T12:49:18;0.00;;;0.00;;
1180;SDS011;579;52.046;8.532;2022-11-20T12:52:03;0.00;;;0.00;;
1180;SDS011;579;52.046;8.532;2022-11-20T12:54:50;0.10;;;0.10;;
1180;SDS011;579;52.046;8.532;2022-11-20T12:57:53;0.00;;;0.00;;
1180;SDS011;579;52.046;8.532;2022-11-20T13:00:24;0.10;;;0.10;;
1180;SDS011;579;52.046;8.532;2022-11-20T13:05:43;0.00;;;0.00;;
1180;SDS011;579;52.046;8.532;2022-11-20T13:08:22;0.00;;;0.00;;
1180;SDS011;579;52.046;8.532;2022-11-20T13:10:52;0.00;;;0.00;;
1180;SDS011;579;52.046;8.532;2022-11-20T13:13:29;0.00;;;0.00;;
1180;SDS011;579;52.046;8.532;2022-11-20T13:16:06;0.10;;;0.10;;
1180;SDS011;579;52.046;8.532;2022-11-20T13:18:39;0.00;;;0.00;;
1180;SDS011;579;52.046;8.532;2022-11-20T13:26:14;0.00;;;0.00;;
1180;SDS011;579;52.046;8.532;2022-11-20T13:28:45;0.00;;;0.00;;
1180;SDS011;579;52.046;8.532;2022-11-20T13:31:31;0.08;;;0.08;;
1180;SDS011;579;52.046;8.532;2022-11-20T13:33:59;0.00;;;0.00;;
1180;SDS011;579;52.046;8.532;2022-11-20T13:36:30;0.00;;;0.00;;
1180;SDS011;579;52.046;8.532;2022-11-20T13:38:59;0.10;;;0.10;;
1180;SDS011;579;52.046;8.532;2022-11-20T13:44:10;0.00;;;0.00;;
1180;SDS011;579;52.046;8.532;2022-11-20T13:46:41;0.00;;;0.00;;
1180;SDS011;579;52.046;8.532;2022-11-20T13:49:10;0.00;;;0.00;;
1180;SDS011;579;52.046;8.532;2022-11-20T13:51:49;0.00;;;0.00;;
1180;SDS011;579;52.046;8.532;2022-11-20T13:54:39;0.00;;;0.00;;
1180;SDS011;579;52.046;8.532;2022-11-20T13:57:30;0.00;;;0.00;;
1180;SDS011;579;52.046;8.532;2022-11-20T14:00:32;0.00;;;0.00;;
1180;SDS011;579;52.046;8.532;2022-11-20T14:03:06;0.00;;;0.00;;
1180;SDS011;579;52.046;8.532;2022-11-20T14:05:40;0.00;;;0.00;;
1180;SDS011;579;52.046;8.532;2022-11-20T14:08:17;0.00;;;0.00;;
1180;SDS011;579;52.046;8.532;2022-11-20T14:11:02;0.00;;;0.00;;
1180;SDS011;579;52.046;8.532;2022-11-20T14:13:30;0.00;;;0.00;;
1180;SDS011;579;52.046;8.532;2022-11-20T14:21:08;0.00;;;0.00;;
1180;SDS011;579;52.046;8.532;2022-11-20T14:23:35;0.00;;;0.00;;
1180;SDS011;579;52.046;8.532;2022-11-20T14:26:04;0.00;;;0.00;;
1180;SDS011;579;52.046;8.532;2022-11-20T14:28:30;0.00;;;0.00;;
1180;SDS011;579;52.046;8.532;2022-11-20T14:30:57;0.00;;;0.00;;
1180;SDS011;579;52.046;8.532;2022-11-20T14:33:25;0.00;;;0.00;;
1180;SDS011;579;52.046;8.532;2022-11-20T14:35:53;0.00;;;0.00;;
1180;SDS011;579;52.046;8.532;2022-11-20T14:38:33;0.00;;;0.00;;
1180;SDS011;579;52.046;8.532;2022-11-20T14:41:06;0.00;;;0.00;;
1180;SDS011;579;52.046;8.532;2022-11-20T14:43:34;0.00;;;0.00;;
1180;SDS011;579;52.046;8.532;2022-11-20T14:46:03;0.00;;;0.00;;
1180;SDS011;579;52.046;8.532;2022-11-20T14:48:33;0.00;;;0.00;;
1180;SDS011;579;52.046;8.532;2022-11-20T14:51:04;0.00;;;0.00;;
1180;SDS011;579;52.046;8.532;2022-11-20T14:56:11;0.08;;;0.08;;
1180;SDS011;579;52.046;8.532;2022-11-20T14:58:38;0.10;;;0.10;;
1180;SDS011;579;52.046;8.532;2022-11-20T15:01:05;0.00;;;0.00;;
1180;SDS011;579;52.046;8.532;2022-11-20T15:03:33;0.08;;;0.08;;
1180;SDS011;579;52.046;8.532;2022-11-20T15:06:02;0.00;;;0.00;;
1180;SDS011;579;52.046;8.532;2022-11-20T15:08:30;0.00;;;0.00;;
1180;SDS011;579;52.046;8.532;2022-11-20T15:10:57;0.00;;;0.00;;
1180;SDS011;579;52.046;8.532;2022-11-20T15:16:13;0.00;;;0.00;;
1180;SDS011;579;52.046;8.532;2022-11-20T15:18:44;0.00;;;0.00;;
1180;SDS011;579;52.046;8.532;2022-11-20T15:21:11;0.00;;;0.00;;
1180;SDS011;579;52.046;8.532;2022-11-20T15:23:40;0.00;;;0.00;;
1180;SDS011;579;52.046;8.532;2022-11-20T15:26:07;0.00;;;0.00;;
1180;SDS011;579;52.046;8.532;2022-11-20T15:28:35;0.00;;;0.00;;
1180;SDS011;579;52.046;8.532;2022-11-20T15:31:06;0.00;;;0.00;;
1180;SDS011;579;52.046;8.532;2022-11-20T15:37:14;0.00;;;0.00;;
1180;SDS011;579;52.046;8.532;2022-11-20T15:39:40;0.00;;;0.00;;
1180;SDS011;579;52.046;8.532;2022-11-20T15:42:06;0.10;;;0.10;;
1180;SDS011;579;52.046;8.532;2022-11-20T15:44:32;0.00;;;0.00;;
1180;SDS011;579;52.046;8.532;2022-11-20T15:46:59;0.00;;;0.00;;
1180;SDS011;579;52.046;8.532;2022-11-20T15:49:25;0.00;;;0.00;;
1180;SDS011;579;52.046;8.532;2022-11-20T15:51:51;0.05;;;0.05;;
1180;SDS011;579;52.046;8.532;2022-11-20T15:57:39;0.00;;;0.00;;
1180;SDS011;579;52.046;8.532;2022-11-20T16:00:05;0.00;;;0.00;;
1180;SDS011;579;52.046;8.532;2022-11-20T16:02:36;0.00;;;0.00;;
1180;SDS011;579;52.046;8.532;2022-11-20T16:05:05;0.00;;;0.00;;
1180;SDS011;579;52.046;8.532;2022-11-20T16:07:37;0.00;;;0.00;;
1180;SDS011;579;52.046;8.532;2022-11-20T16:10:04;0.00;;;0.00;;
1180;SDS011;579;52.046;8.532;2022-11-20T16:12:31;0.10;;;0.10;;
1180;SDS011;579;52.046;8.532;2022-11-20T16:17:54;0.00;;;0.00;;
1180;SDS011;579;52.046;8.532;2022-11-20T16:20:20;0.00;;;0.00;;
1180;SDS011;579;52.046;8.532;2022-11-20T16:22:46;0.00;;;0.00;;
1180;SDS011;579;52.046;8.532;2022-11-20T16:25:13;0.00;;;0.00;;
1180;SDS011;579;52.046;8.532;2022-11-20T16:27:40;0.00;;;0.00;;
1180;SDS011;579;52.046;8.532;2022-11-20T16:30:09;0.00;;;0.00;;
1180;SDS011;579;52.046;8.532;2022-11-20T16:32:38;0.00;;;0.00;;
1180;SDS011;579;52.046;8.532;2022-11-20T16:37:39;0.00;;;0.00;;
1180;SDS011;579;52.046;8.532;2022-11-20T16:40:08;0.00;;;0.00;;
1180;SDS011;579;52.046;8.532;2022-11-20T16:42:36;0.00;;;0.00;;
1180;SDS011;579;52.046;8.532;2022-11-20T16:45:03;0.00;;;0.00;;
1180;SDS011;579;52.046;8.532;2022-11-20T16:47:32;0.00;;;0.00;;
1180;SDS011;579;52.046;8.532;2022-11-20T16:49:59;0.00;;;0.00;;
1180;SDS011;579;52.046;8.532;2022-11-20T16:52:25;0.00;;;0.00;;
1180;SDS011;579;52.046;8.532;2022-11-20T16:59:42;0.00;;;0.00;;
1180;SDS011;579;52.046;8.532;2022-11-20T17:02:09;0.00;;;0.00;;
1180;SDS011;579;52.046;8.532;2022-11-20T17:04:35;0.00;;;0.00;;
1180;SDS011;579;52.046;8.532;2022-11-20T17:07:01;0.03;;;0.03;;
1180;SDS011;579;52.046;8.532;2022-11-20T17:09:28;0.00;;;0.00;;
1180;SDS011;579;52.046;8.532;2022-11-20T17:11:54;0.00;;;0.00;;
1180;SDS011;579;52.046;8.532;2022-11-20T17:14:20;0.00;;;0.00;;
1180;SDS011;579;52.046;8.532;2022-11-20T17:19:22;0.00;;;0.00;;
1180;SDS011;579;52.046;8.532;2022-11-20T17:21:48;0.00;;;0.00;;
1180;SDS011;579;52.046;8.532;2022-11-20T17:24:15;0.00;;;0.00;;
1180;SDS011;579;52.046;8.532;2022-11-20T17:26:41;0.00;;;0.00;;
1180;SDS011;579;52.046;8.532;2022-11-20T17:29:09;0.10;;;0.10;;
1180;SDS011;579;52.046;8.532;2022-11-20T17:31:38;0.00;;;0.00;;
1180;SDS011;579;52.046;8.532;2022-11-20T17:34:05;0.00;;;0.00;;
1180;SDS011;579;52.046;8.532;2022-11-20T17:41:40;0.00;;;0.00;;
1180;SDS011;579;52.046;8.532;2022-11-20T17:44:08;0.00;;;0.00;;
1180;SDS011;579;52.046;8.532;2022-11-20T17:46:36;0.10;;;0.10;;
1180;SDS011;579;52.046;8.532;2022-11-20T17:49:02;0.05;;;0.05;;
1180;SDS011;579;52.046;8.532;2022-11-20T17:51:29;0.10;;;0.10;;
1180;SDS011;579;52.046;8.532;2022-11-20T17:53:59;0.00;;;0.00;;
1180;SDS011;579;52.046;8.532;2022-11-20T17:56:29;0.00;;;0.00;;
1180;SDS011;579;52.046;8.532;2022-11-20T18:01:55;0.00;;;0.00;;
1180;SDS011;579;52.046;8.532;2022-11-20T18:04:22;0.00;;;0.00;;
1180;SDS011;579;52.046;8.532;2022-11-20T18:06:48;0.00;;;0.00;;
1180;SDS011;579;52.046;8.532;2022-11-20T18:09:15;0.00;;;0.00;;
1180;SDS011;579;52.046;8.532;2022-11-20T18:11:41;0.00;;;0.00;;
1180;SDS011;579;52.046;8.532;2022-11-20T18:14:10;0.00;;;0.00;;
1180;SDS011;579;52.046;8.532;2022-11-20T18:16:53;0.00;;;0.00;;
1180;SDS011;579;52.046;8.532;2022-11-20T18:24:12;0.00;;;0.00;;
1180;SDS011;579;52.046;8.532;2022-11-20T18:26:38;0.00;;;0.00;;
1180;SDS011;579;52.046;8.532;2022-11-20T18:29:05;0.00;;;0.00;;
1180;SDS011;579;52.046;8.532;2022-11-20T18:31:32;0.00;;;0.00;;
1180;SDS011;579;52.046;8.532;2022-11-20T18:33:58;0.00;;;0.00;;
1180;SDS011;579;52.046;8.532;2022-11-20T18:36:25;0.00;;;0.00;;
1180;SDS011;579;52.046;8.532;2022-11-20T18:38:54;0.10;;;0.10;;
1180;SDS011;579;52.046;8.532;2022-11-20T18:46:31;0.05;;;0.05;;
1180;SDS011;579;52.046;8.532;2022-11-20T18:48:58;0.00;;;0.00;;
1180;SDS011;579;52.046;8.532;2022-11-20T18:51:24;0.00;;;0.00;;
1180;SDS011;579;52.046;8.532;2022-11-20T18:53:50;0.00;;;0.00;;
1180;SDS011;579;52.046;8.532;2022-11-20T18:56:16;0.00;;;0.00;;
1180;SDS011;579;52.046;8.532;2022-11-20T18:58:43;0.05;;;0.05;;
1180;SDS011;579;52.046;8.532;2022-11-20T19:01:09;0.00;;;0.00;;
1180;SDS011;579;52.046;8.532;2022-11-20T19:08:13;0.00;;;0.00;;
1180;SDS011;579;52.046;8.532;2022-11-20T19:10:39;0.00;;;0.00;;
1180;SDS011;579;52.046;8.532;2022-11-20T19:13:06;0.10;;;0.10;;
1180;SDS011;579;52.046;8.532;2022-11-20T19:15:32;0.00;;;0.00;;
1180;SDS011;579;52.046;8.532;2022-11-20T19:18:00;0.00;;;0.00;;
1180;SDS011;579;52.046;8.532;2022-11-20T19:20:26;0.00;;;0.00;;
1180;SDS011;579;52.046;8.532;2022-11-20T19:22:52;0.00;;;0.00;;
1180;SDS011;579;52.046;8.532;2022-11-20T19:29:50;0.00;;;0.00;;